createdAt,value
2022-12-12T00:01:47.794Z,9.93
2022-12-12T00:04:14.945Z,9.85
2022-12-12T00:06:42.233Z,10.73
2022-12-12T00:09:09.600Z,10.82
2022-12-12T00:11:37.216Z,10.35
2022-12-12T00:14:04.853Z,10.32
2022-12-12T00:16:32.580Z,10.32
2022-12-12T00:18:59.725Z,10.95
2022-12-12T00:21:29.203Z,11.38
2022-12-12T00:23:56.889Z,10.55
2022-12-12T00:26:27.308Z,10.30
2022-12-12T00:28:55.203Z,10.57
2022-12-12T00:31:22.631Z,9.77
2022-12-12T00:33:50.322Z,11.10
2022-12-12T00:36:20.319Z,11.52
2022-12-12T00:38:47.938Z,11.88
2022-12-12T00:41:16.360Z,11.10
2022-12-12T00:43:43.725Z,11.20
2022-12-12T00:46:23.267Z,11.10
2022-12-12T00:48:53.286Z,10.75
2022-12-12T00:51:22.241Z,10.73
2022-12-12T00:53:50.326Z,10.98
2022-12-12T00:56:19.818Z,11.43
2022-12-12T00:58:47.091Z,9.32
2022-12-12T01:01:21.168Z,10.70
2022-12-12T01:03:48.643Z,10.50
2022-12-12T01:06:16.162Z,10.32
2022-12-12T01:08:43.860Z,10.88
2022-12-12T01:11:14.018Z,8.85
2022-12-12T01:13:42.447Z,10.30
2022-12-12T01:16:10.406Z,9.73
2022-12-12T01:18:38.332Z,9.73
2022-12-12T01:21:10.299Z,9.27
2022-12-12T01:23:37.984Z,10.05
2022-12-12T01:26:09.135Z,9.32
2022-12-12T01:28:36.321Z,10.38
2022-12-12T01:31:04.025Z,9.50
2022-12-12T01:33:31.236Z,9.10
2022-12-12T01:35:58.592Z,8.13
2022-12-12T01:38:25.669Z,9.50
2022-12-12T01:40:53.847Z,10.50
2022-12-12T01:43:22.628Z,9.15
2022-12-12T01:45:59.410Z,9.30
2022-12-12T01:48:43.844Z,10.02
2022-12-12T01:51:17.456Z,7.43
2022-12-12T01:53:45.806Z,8.68
2022-12-12T01:56:16.896Z,8.88
2022-12-12T01:58:46.635Z,9.65
2022-12-12T02:01:15.161Z,8.30
2022-12-12T02:03:42.817Z,8.57
2022-12-12T02:06:14.697Z,13.70
2022-12-12T02:08:43.186Z,9.05
2022-12-12T02:11:10.487Z,8.77
2022-12-12T02:13:37.724Z,10.88
2022-12-12T02:16:42.608Z,9.88
2022-12-12T02:19:21.622Z,9.50
2022-12-12T02:22:08.259Z,7.72
2022-12-12T02:25:06.747Z,8.27
2022-12-12T02:28:04.408Z,8.15
2022-12-12T02:30:48.609Z,12.50
2022-12-12T02:33:28.605Z,9.27
2022-12-12T02:36:18.787Z,7.22
2022-12-12T02:39:02.321Z,7.38
2022-12-12T02:41:42.520Z,7.75
2022-12-12T02:44:17.627Z,12.48
2022-12-12T02:47:06.397Z,7.75
2022-12-12T02:49:50.248Z,7.35
2022-12-12T02:52:17.975Z,6.82
2022-12-12T02:54:45.235Z,7.28
2022-12-12T02:57:21.747Z,6.50
2022-12-12T02:59:55.516Z,5.93
2022-12-12T03:03:18.987Z,6.47
2022-12-12T03:06:49.303Z,6.50
2022-12-12T03:09:38.352Z,5.82
2022-12-12T03:12:16.708Z,5.43
2022-12-12T03:15:05.880Z,6.22
2022-12-12T03:18:04.873Z,6.70
2022-12-12T03:20:49.772Z,6.07
2022-12-12T03:23:21.986Z,6.53
2022-12-12T03:26:12.064Z,6.00
2022-12-12T03:28:45.986Z,5.80
2022-12-12T03:31:14.708Z,5.95
2022-12-12T03:33:54.990Z,6.03
2022-12-12T03:36:27.811Z,5.40
2022-12-12T03:39:07.564Z,5.20
2022-12-12T03:41:40.745Z,5.53
2022-12-12T03:44:14.318Z,5.70
2022-12-12T03:46:48.890Z,5.40
2022-12-12T03:49:32.099Z,6.28
2022-12-12T03:52:25.744Z,6.25
2022-12-12T03:55:15.625Z,5.90
2022-12-12T03:57:52.205Z,6.25
2022-12-12T04:00:19.775Z,6.10
2022-12-12T04:02:56.569Z,6.28
2022-12-12T04:05:23.850Z,23.98
2022-12-12T04:08:15.273Z,6.25
2022-12-12T04:11:06.495Z,8.02
2022-12-12T04:13:59.700Z,17.90
2022-12-12T04:16:32.740Z,7.85
2022-12-12T04:19:12.369Z,5.90
2022-12-12T04:22:04.125Z,7.72
2022-12-12T04:25:02.496Z,8.07
2022-12-12T04:27:44.713Z,12.23
2022-12-12T04:30:14.383Z,12.30
2022-12-12T04:32:57.150Z,6.13
2022-12-12T04:35:38.810Z,7.45
2022-12-12T04:38:13.180Z,9.50
2022-12-12T04:40:45.208Z,6.80
2022-12-12T04:43:19.513Z,8.07
2022-12-12T04:45:55.144Z,7.43
2022-12-12T04:48:29.269Z,6.60
2022-12-12T04:50:59.314Z,5.95
2022-12-12T04:53:37.374Z,6.47
2022-12-12T04:56:11.076Z,5.28
2022-12-12T04:58:39.298Z,5.53
2022-12-12T05:01:21.906Z,6.45
2022-12-12T05:03:58.996Z,5.28
2022-12-12T05:06:36.935Z,5.05
2022-12-12T05:09:04.495Z,4.70
2022-12-12T05:11:33.156Z,5.50
2022-12-12T05:14:00.414Z,4.47
2022-12-12T05:16:36.016Z,4.88
2022-12-12T05:19:03.511Z,5.35
2022-12-12T05:21:30.468Z,7.05
2022-12-12T05:23:57.796Z,5.28
2022-12-12T05:26:27.438Z,4.20
2022-12-12T05:28:55.306Z,4.05
2022-12-12T05:31:22.873Z,4.18
2022-12-12T05:33:50.438Z,3.83
2022-12-12T05:36:17.845Z,4.57
2022-12-12T05:38:45.588Z,7.47
2022-12-12T05:41:12.636Z,21.42
2022-12-12T05:43:40.033Z,19.45
2022-12-12T05:46:07.421Z,17.23
2022-12-12T05:48:34.757Z,14.13
2022-12-12T05:51:03.260Z,13.55
2022-12-12T05:53:30.880Z,10.80
2022-12-12T05:55:58.189Z,11.05
2022-12-12T05:58:25.420Z,9.13
2022-12-12T06:00:52.532Z,8.88
2022-12-12T06:03:19.975Z,6.25
2022-12-12T06:05:47.328Z,3.88
2022-12-12T06:08:14.757Z,10.93
2022-12-12T06:10:42.162Z,8.27
2022-12-12T06:13:09.140Z,6.00
2022-12-12T06:15:40.247Z,6.03
2022-12-12T06:18:08.883Z,7.15
2022-12-12T06:20:36.398Z,5.20
2022-12-12T06:23:03.557Z,4.88
2022-12-12T06:25:31.609Z,5.13
2022-12-12T06:27:59.244Z,5.82
2022-12-12T06:30:26.900Z,5.63
2022-12-12T06:32:53.968Z,6.57
2022-12-12T06:35:21.295Z,4.05
2022-12-12T06:37:48.581Z,5.70
2022-12-12T06:40:16.424Z,7.28
2022-12-12T06:42:47.932Z,5.75
2022-12-12T06:45:17.090Z,6.25
2022-12-12T06:47:44.304Z,6.22
2022-12-12T06:50:12.716Z,5.15
2022-12-12T06:52:39.700Z,6.22
2022-12-12T06:55:07.454Z,7.05
2022-12-12T06:57:34.883Z,5.15
2022-12-12T07:00:03.164Z,8.15
2022-12-12T07:02:30.584Z,14.48
2022-12-12T07:04:58.471Z,5.70
2022-12-12T07:07:25.581Z,5.47
2022-12-12T07:09:52.933Z,27.10
2022-12-12T07:12:20.049Z,34.85
2022-12-12T07:14:47.306Z,24.60
2022-12-12T07:17:14.263Z,15.43
2022-12-12T07:19:41.544Z,22.67
2022-12-12T07:22:10.430Z,32.33
2022-12-12T07:24:38.437Z,36.47
2022-12-12T07:27:06.875Z,22.83
2022-12-12T07:29:34.238Z,44.22
2022-12-12T07:32:01.247Z,42.15
2022-12-12T07:34:31.454Z,55.47
2022-12-12T07:37:02.837Z,11.07
2022-12-12T07:39:34.623Z,8.07
2022-12-12T07:42:01.664Z,8.32
2022-12-12T07:44:29.156Z,11.32
2022-12-12T07:46:59.027Z,9.25
2022-12-12T07:49:28.366Z,8.55
2022-12-12T07:51:55.409Z,15.25
2022-12-12T07:54:22.837Z,13.77
2022-12-12T07:56:50.039Z,14.05
2022-12-12T07:59:17.530Z,13.23
2022-12-12T08:01:44.617Z,20.55
2022-12-12T08:04:13.398Z,14.05
2022-12-12T08:06:40.343Z,23.80
2022-12-12T08:09:07.680Z,11.90
2022-12-12T08:11:35.721Z,10.52
2022-12-12T08:14:11.154Z,14.68
2022-12-12T08:16:40.044Z,13.85
2022-12-12T08:19:07.864Z,7.47
2022-12-12T08:21:34.984Z,8.07
2022-12-12T08:24:03.000Z,12.98
2022-12-12T08:26:32.020Z,10.98
2022-12-12T08:28:59.562Z,20.25
2022-12-12T08:31:28.015Z,21.15
2022-12-12T08:33:55.949Z,22.60
2022-12-12T08:36:26.737Z,8.18
2022-12-12T08:38:54.012Z,8.65
2022-12-12T08:41:22.517Z,16.08
2022-12-12T08:43:50.109Z,15.77
2022-12-12T08:46:19.588Z,11.50
2022-12-12T08:48:48.240Z,11.95
2022-12-12T08:51:16.497Z,17.30
2022-12-12T08:53:45.799Z,20.70
2022-12-12T08:56:13.172Z,15.88
2022-12-12T08:58:40.750Z,13.27
2022-12-12T09:01:25.465Z,14.18
2022-12-12T09:03:55.123Z,13.35
2022-12-12T09:06:23.537Z,11.18
2022-12-12T09:08:50.960Z,12.77
2022-12-12T09:11:18.729Z,10.57
2022-12-12T09:13:46.198Z,14.63
2022-12-12T09:16:13.868Z,17.83
2022-12-12T09:18:48.110Z,9.90
2022-12-12T09:21:17.357Z,15.95
2022-12-12T09:23:44.881Z,11.20
2022-12-12T09:26:12.293Z,7.97
2022-12-12T09:28:40.154Z,8.73
2022-12-12T09:31:08.885Z,8.57
2022-12-12T09:33:36.573Z,10.02
2022-12-12T09:36:06.273Z,9.13
2022-12-12T09:38:33.870Z,9.52
2022-12-12T09:41:09.841Z,10.35
2022-12-12T09:43:44.586Z,9.93
2022-12-12T09:46:32.053Z,10.93
2022-12-12T09:49:16.138Z,8.43
2022-12-12T09:51:47.152Z,7.70
2022-12-12T09:54:23.233Z,7.40
2022-12-12T09:56:53.417Z,14.68
2022-12-12T09:59:37.719Z,20.08
2022-12-12T10:02:23.287Z,15.02
2022-12-12T10:04:58.688Z,12.05
2022-12-12T10:10:33.611Z,13.73
2022-12-12T10:13:03.078Z,12.15
2022-12-12T10:15:43.123Z,9.90
2022-12-12T10:18:52.375Z,11.25
2022-12-12T10:21:26.137Z,15.18
2022-12-12T10:24:50.809Z,14.55
2022-12-12T10:27:18.534Z,19.17
2022-12-12T10:30:34.852Z,13.55
2022-12-12T10:33:10.314Z,15.13
2022-12-12T10:35:50.731Z,10.68
2022-12-12T10:38:47.875Z,11.63
2022-12-12T10:41:51.332Z,18.42
2022-12-12T10:45:06.454Z,17.80
2022-12-12T10:47:35.145Z,10.75
2022-12-12T10:50:13.313Z,8.80
2022-12-12T10:52:41.281Z,8.27
2022-12-12T10:55:25.687Z,7.18
2022-12-12T10:58:04.525Z,9.20
2022-12-12T11:01:10.652Z,8.15
2022-12-12T11:03:51.136Z,11.65
2022-12-12T11:06:38.300Z,16.85
2022-12-12T11:09:24.187Z,20.83
2022-12-12T11:12:16.665Z,32.83
2022-12-12T11:14:48.504Z,15.95
2022-12-12T11:17:27.750Z,11.43
2022-12-12T11:19:57.974Z,13.85
2022-12-12T11:22:27.479Z,11.55
2022-12-12T11:24:55.110Z,13.30
2022-12-12T11:27:30.680Z,13.75
2022-12-12T11:33:21.942Z,14.27
2022-12-12T11:35:55.340Z,17.63
2022-12-12T11:38:28.186Z,26.08
2022-12-12T11:41:04.652Z,18.15
2022-12-12T11:43:49.517Z,19.30
2022-12-12T11:46:30.581Z,17.20
2022-12-12T11:49:01.152Z,16.95
2022-12-12T11:51:38.497Z,43.13
2022-12-12T11:54:23.097Z,81.68
2022-12-12T11:57:03.400Z,48.55
2022-12-12T11:59:55.312Z,16.33
2022-12-12T12:02:47.821Z,108.95
2022-12-12T12:05:52.409Z,23.98
2022-12-12T12:08:54.855Z,49.70
2022-12-12T12:11:37.375Z,29.20
2022-12-12T12:14:13.396Z,81.93
2022-12-12T12:17:18.595Z,67.75
2022-12-12T12:19:49.840Z,50.72
2022-12-12T12:22:48.880Z,23.50
2022-12-12T12:25:47.897Z,30.83
2022-12-12T12:28:33.705Z,22.40
2022-12-12T12:36:58.624Z,71.25
2022-12-12T12:40:01.102Z,26.23
2022-12-12T12:43:07.262Z,18.05
2022-12-12T12:45:40.960Z,18.65
2022-12-12T12:48:23.220Z,14.48
2022-12-12T12:51:01.577Z,16.77
2022-12-12T12:53:36.826Z,19.08
2022-12-12T12:56:38.564Z,24.92
2022-12-12T12:59:17.619Z,19.05
2022-12-12T13:01:49.030Z,36.97
2022-12-12T13:07:40.508Z,73.25
2022-12-12T13:10:27.210Z,33.35
2022-12-12T13:13:06.318Z,43.92
2022-12-12T13:15:40.351Z,43.67
2022-12-12T13:18:26.069Z,33.17
2022-12-12T13:21:03.963Z,58.35
2022-12-12T13:23:53.245Z,113.72
2022-12-12T13:26:45.576Z,46.72
2022-12-12T13:30:12.493Z,38.40
2022-12-12T13:33:11.093Z,36.65
2022-12-12T13:35:45.921Z,20.48
2022-12-12T13:38:26.465Z,11.98
2022-12-12T13:41:03.110Z,14.60
2022-12-12T13:43:30.632Z,14.95
2022-12-12T13:45:58.295Z,14.55
2022-12-12T13:48:28.476Z,15.50
2022-12-12T13:51:30.963Z,16.52
2022-12-12T13:54:12.265Z,14.63
2022-12-12T13:57:14.659Z,11.63
2022-12-12T13:59:53.823Z,35.33
2022-12-12T14:02:38.977Z,20.42
2022-12-12T14:05:28.236Z,28.02
2022-12-12T14:08:21.525Z,25.10
2022-12-12T14:10:48.569Z,13.30
2022-12-12T14:13:22.079Z,19.73
2022-12-12T14:15:58.151Z,11.85
2022-12-12T14:18:30.537Z,11.95
2022-12-12T14:21:12.584Z,12.75
2022-12-12T14:23:46.516Z,23.05
2022-12-12T14:26:28.596Z,64.35
2022-12-12T14:29:18.914Z,27.42
2022-12-12T14:32:04.519Z,25.55
2022-12-12T14:34:37.626Z,28.00
2022-12-12T14:37:37.407Z,31.73
2022-12-12T14:40:25.386Z,21.30
2022-12-12T14:43:23.215Z,26.17
2022-12-12T14:45:50.982Z,31.58
2022-12-12T14:48:28.765Z,25.70
2022-12-12T14:51:16.828Z,20.25
2022-12-12T14:53:50.733Z,18.60
2022-12-12T14:56:21.878Z,21.17
2022-12-12T14:59:04.966Z,29.83
2022-12-12T15:01:32.493Z,34.97
2022-12-12T15:04:02.863Z,37.92
2022-12-12T15:06:37.388Z,47.58
2022-12-12T15:09:31.673Z,25.55
2022-12-12T15:12:11.180Z,18.53
2022-12-12T15:14:40.254Z,25.98
2022-12-12T15:17:28.927Z,19.90
2022-12-12T15:20:00.586Z,23.88
2022-12-12T15:22:34.160Z,44.90
2022-12-12T15:25:04.288Z,56.30
2022-12-12T15:27:43.468Z,84.47
2022-12-12T15:30:31.094Z,74.95
2022-12-12T15:33:00.719Z,51.55
2022-12-12T15:35:28.648Z,61.03
2022-12-12T15:38:01.709Z,41.10
2022-12-12T15:40:36.490Z,49.33
2022-12-12T15:43:23.411Z,28.33
2022-12-12T15:45:56.094Z,30.77
2022-12-12T15:48:25.697Z,50.60
2022-12-12T15:51:06.108Z,47.05
2022-12-12T15:53:39.191Z,63.38
2022-12-12T15:56:22.877Z,32.55
2022-12-12T15:59:15.221Z,46.50
2022-12-12T16:01:43.096Z,26.35
2022-12-12T16:04:10.803Z,37.90
2022-12-12T16:06:42.049Z,33.30
2022-12-12T16:09:32.758Z,31.13
2022-12-12T16:12:00.275Z,14.73
2022-12-12T16:14:40.232Z,10.18
2022-12-12T16:17:14.317Z,13.43
2022-12-12T16:19:54.757Z,25.25
2022-12-12T16:22:28.836Z,19.75
2022-12-12T16:25:10.912Z,44.47
2022-12-12T16:27:38.481Z,35.45
2022-12-12T16:30:06.527Z,36.92
2022-12-12T16:32:34.192Z,19.05
2022-12-12T16:35:01.695Z,35.83
2022-12-12T16:37:29.212Z,40.33
2022-12-12T16:39:56.716Z,42.70
2022-12-12T16:42:24.176Z,58.88
2022-12-12T16:44:52.038Z,62.55
2022-12-12T16:47:25.711Z,71.25
2022-12-12T16:49:53.219Z,34.50
2022-12-12T16:52:21.420Z,39.88
2022-12-12T16:54:53.643Z,43.90
2022-12-12T16:57:22.043Z,73.28
2022-12-12T16:59:49.447Z,32.47
2022-12-12T17:02:24.194Z,47.58
2022-12-12T17:07:19.021Z,35.03
2022-12-12T17:09:46.537Z,55.78
2022-12-12T17:12:15.305Z,35.72
2022-12-12T17:14:42.686Z,36.30
2022-12-12T17:17:13.672Z,44.03
2022-12-12T17:19:41.376Z,33.05
2022-12-12T17:22:08.450Z,30.50
2022-12-12T17:24:35.873Z,54.45
2022-12-12T17:27:03.022Z,22.42
2022-12-12T17:29:33.336Z,21.17
2022-12-12T17:32:00.434Z,20.27
2022-12-12T17:34:27.821Z,18.27
2022-12-12T17:36:54.760Z,18.77
2022-12-12T17:39:23.011Z,14.80
2022-12-12T17:41:51.412Z,21.70
2022-12-12T17:44:19.133Z,26.00
2022-12-12T17:46:46.233Z,32.17
2022-12-12T17:49:13.673Z,20.45
2022-12-12T17:51:40.749Z,15.57
2022-12-12T17:54:08.142Z,13.73
2022-12-12T17:56:35.587Z,15.45
2022-12-12T17:59:09.715Z,12.73
2022-12-12T18:01:37.366Z,11.90
2022-12-12T18:04:05.238Z,14.00
2022-12-12T18:06:36.054Z,9.68
2022-12-12T18:09:03.943Z,19.55
2022-12-12T18:11:35.931Z,13.93
2022-12-12T18:14:06.703Z,15.57
2022-12-12T18:16:35.496Z,12.32
2022-12-12T18:19:02.976Z,17.45
2022-12-12T18:24:23.514Z,12.18
2022-12-12T18:26:55.438Z,12.07
2022-12-12T18:29:23.948Z,10.85
2022-12-12T18:31:54.393Z,12.85
2022-12-12T18:34:23.696Z,10.15
2022-12-12T18:36:50.935Z,9.30
2022-12-12T18:39:18.348Z,10.65
2022-12-12T18:41:45.384Z,10.90
2022-12-12T18:44:14.951Z,10.23
2022-12-12T18:46:43.692Z,11.07
2022-12-12T18:49:15.904Z,15.93
2022-12-12T18:51:47.425Z,12.80
2022-12-12T18:54:16.669Z,11.98
2022-12-12T18:56:45.920Z,12.18
2022-12-12T18:59:14.408Z,13.90
2022-12-12T19:01:41.607Z,12.55
2022-12-12T19:04:12.573Z,15.70
2022-12-12T19:06:42.891Z,16.70
2022-12-12T19:09:15.955Z,19.33
2022-12-12T19:11:43.593Z,20.20
2022-12-12T19:14:12.756Z,19.75
2022-12-12T19:16:40.412Z,17.23
2022-12-12T19:19:09.611Z,18.73
2022-12-12T19:21:38.455Z,18.80
2022-12-12T19:24:09.276Z,19.85
2022-12-12T19:26:38.206Z,11.15
2022-12-12T19:29:09.717Z,12.50
2022-12-12T19:31:37.623Z,12.00
2022-12-12T19:34:06.823Z,14.90
2022-12-12T19:36:35.770Z,15.07
2022-12-12T19:39:05.990Z,16.70
2022-12-12T19:41:33.205Z,15.65
2022-12-12T19:44:01.968Z,14.88
2022-12-12T19:46:34.297Z,12.80
2022-12-12T19:49:04.648Z,13.27
2022-12-12T19:51:35.935Z,17.63
2022-12-12T19:54:07.941Z,16.90
2022-12-12T19:56:37.493Z,14.85
2022-12-12T19:59:05.370Z,12.55
2022-12-12T20:01:36.324Z,11.65
2022-12-12T20:04:09.178Z,10.32
2022-12-12T20:06:42.155Z,11.10
2022-12-12T20:09:11.405Z,16.48
2022-12-12T20:11:40.033Z,10.23
2022-12-12T20:14:08.040Z,9.13
2022-12-12T20:16:35.198Z,14.85
2022-12-12T20:19:05.551Z,7.50
2022-12-12T20:24:24.125Z,9.30
2022-12-12T20:26:54.306Z,10.75
2022-12-12T20:29:22.377Z,9.70
2022-12-12T20:31:49.918Z,8.93
2022-12-12T20:34:21.770Z,11.85
2022-12-12T20:36:50.250Z,10.13
2022-12-12T20:39:22.168Z,10.98
2022-12-12T20:41:53.327Z,17.95
2022-12-12T20:44:23.332Z,7.53
2022-12-12T20:46:50.428Z,11.13
2022-12-12T20:49:19.833Z,13.82
2022-12-12T20:51:56.437Z,12.27
2022-12-12T20:54:25.513Z,15.05
2022-12-12T20:56:54.350Z,14.30
2022-12-12T20:59:22.629Z,10.20
2022-12-12T21:01:49.871Z,18.92
2022-12-12T21:04:17.443Z,16.98
2022-12-12T21:06:48.658Z,15.73
2022-12-12T21:09:23.182Z,34.63
2022-12-12T21:14:19.756Z,7.90
2022-12-12T21:16:46.773Z,8.50
2022-12-12T21:19:17.119Z,8.73
2022-12-12T21:21:44.496Z,7.45
2022-12-12T21:24:13.422Z,6.50
2022-12-12T21:26:40.525Z,8.70
2022-12-12T21:29:09.620Z,7.78
2022-12-12T21:31:41.219Z,8.95
2022-12-12T21:34:10.914Z,8.75
2022-12-12T21:36:37.946Z,10.93
2022-12-12T21:39:07.185Z,42.35
2022-12-12T21:41:35.161Z,58.38
2022-12-12T21:44:02.553Z,19.73
2022-12-12T21:46:31.200Z,15.73
2022-12-12T21:49:17.325Z,13.90
2022-12-12T21:51:45.112Z,21.45
2022-12-12T21:54:14.370Z,14.50
2022-12-12T21:56:41.879Z,18.60
2022-12-12T21:59:10.768Z,9.93
2022-12-12T22:01:38.222Z,10.48
2022-12-12T22:04:05.976Z,11.18
2022-12-12T22:06:35.663Z,61.30
2022-12-12T22:09:06.248Z,28.80
2022-12-12T22:11:47.470Z,17.60
2022-12-12T22:14:19.106Z,12.80
2022-12-12T22:16:46.286Z,20.88
2022-12-12T22:19:14.941Z,12.63
2022-12-12T22:21:43.819Z,11.63
2022-12-12T22:24:11.259Z,10.63
2022-12-12T22:26:40.981Z,10.90
2022-12-12T22:29:12.614Z,10.35
2022-12-12T22:31:41.321Z,9.40
2022-12-12T22:34:16.163Z,10.63
2022-12-12T22:36:44.758Z,15.00
2022-12-12T22:39:25.388Z,12.20
2022-12-12T22:41:54.862Z,10.52
2022-12-12T22:44:23.311Z,8.15
2022-12-12T22:46:52.845Z,11.70
2022-12-12T22:49:25.831Z,10.45
2022-12-12T22:51:55.182Z,8.82
2022-12-12T22:54:22.873Z,10.05
2022-12-12T22:56:50.165Z,9.52
2022-12-12T22:59:17.461Z,7.80
2022-12-12T23:01:44.460Z,9.55
2022-12-12T23:04:15.517Z,7.88
2022-12-12T23:06:43.757Z,8.27
2022-12-12T23:09:20.768Z,8.20
2022-12-12T23:11:49.456Z,9.57
2022-12-12T23:14:19.721Z,8.85
2022-12-12T23:16:47.352Z,8.73
2022-12-12T23:19:18.921Z,20.52
2022-12-12T23:21:46.438Z,16.77
2022-12-12T23:24:14.249Z,13.43
2022-12-12T23:26:42.178Z,12.63
2022-12-12T23:29:12.772Z,21.25
2022-12-12T23:31:40.345Z,9.98
2022-12-12T23:34:15.120Z,9.10
2022-12-12T23:36:44.014Z,8.38
2022-12-12T23:39:12.499Z,9.32
2022-12-12T23:41:40.187Z,11.57
2022-12-12T23:44:08.476Z,11.05
2022-12-12T23:46:36.427Z,10.73
2022-12-12T23:49:08.127Z,9.73
2022-12-12T23:51:42.087Z,9.80
2022-12-12T23:54:11.930Z,8.35
2022-12-12T23:56:39.883Z,11.25
2022-12-12T23:59:11.653Z,14.05
